Time;durP1;ratioP1;P1;durP2;ratioP2;P2;SDS_P1;SDS_P2;PMS_P1;PMS_P2;Temp;Humidity;BMP_temperature;BMP_pressure;BME280_temperature;BME280_humidity;BME280_pressure;Samples;Min_cycle;Max_cycle;Signal;HPM_P1;HPM_P2
2023/01/13 00:02:24;;;;;;;29.52;4.82;;;;;;;;;;5030748;28;20040;-67
2023/01/13 00:04:50;;;;;;;29.95;4.38;;;;;;;;;;5028924;28;20052;-67
2023/01/13 00:07:16;;;;;;;25.13;3.83;;;;;;;;;;5029360;28;20037;-67
2023/01/13 00:09:42;;;;;;;28.67;4.75;;;;;;;;;;5030505;28;20037;-67
2023/01/13 00:12:08;;;;;;;26.75;4.28;;;;;;;;;;5041408;28;20119;-67
2023/01/13 00:14:37;;;;;;;34.72;4.88;;;;;;;;;;5050322;28;20833;-67
2023/01/13 00:17:03;;;;;;;34.97;5.00;;;;;;;;;;5050585;28;20049;-67
2023/01/13 00:19:29;;;;;;;27.70;4.13;;;;;;;;;;5048807;28;20124;-67
2023/01/13 00:21:56;;;;;;;36.53;4.47;;;;;;;;;;5050091;28;20053;-67
2023/01/13 00:24:22;;;;;;;37.58;5.35;;;;;;;;;;5048758;28;20442;-67
2023/01/13 00:26:48;;;;;;;36.50;5.13;;;;;;;;;;5033459;28;20175;-67
2023/01/13 00:29:14;;;;;;;39.35;7.18;;;;;;;;;;5030768;28;20042;-67
2023/01/13 00:31:40;;;;;;;45.22;11.35;;;;;;;;;;5030421;28;20041;-67
2023/01/13 00:34:06;;;;;;;37.33;7.05;;;;;;;;;;5028914;28;20046;-67
2023/01/13 00:36:32;;;;;;;33.97;5.38;;;;;;;;;;5030366;28;20092;-67
2023/01/13 00:38:58;;;;;;;43.83;6.60;;;;;;;;;;5029006;28;20452;-67
2023/01/13 00:41:25;;;;;;;33.45;6.03;;;;;;;;;;5029583;28;20076;-67
2023/01/13 00:43:51;;;;;;;34.28;6.35;;;;;;;;;;5030287;28;20571;-67
2023/01/13 00:46:18;;;;;;;45.35;6.38;;;;;;;;;;5032056;28;20500;-67
2023/01/13 00:48:45;;;;;;;34.67;6.63;;;;;;;;;;5034119;28;20523;-67
2023/01/13 00:51:16;;;;;;;34.53;5.10;;;;;;;;;;5034193;28;20048;-67
2023/01/13 00:53:46;;;;;;;39.00;6.80;;;;;;;;;;5034101;28;20040;-67
2023/01/13 00:56:20;;;;;;;33.38;5.88;;;;;;;;;;5032136;28;20095;-67
2023/01/13 00:58:46;;;;;;;43.33;7.13;;;;;;;;;;5016520;28;20443;-67
2023/01/13 01:01:17;;;;;;;31.90;5.47;;;;;;;;;;5032361;28;20041;-67
2023/01/13 01:03:43;;;;;;;33.65;5.72;;;;;;;;;;5033478;28;20400;-67
2023/01/13 01:06:13;;;;;;;37.42;5.72;;;;;;;;;;5033415;28;20045;-67
2023/01/13 01:08:39;;;;;;;35.92;6.18;;;;;;;;;;5032379;28;20057;-67
2023/01/13 01:11:13;;;;;;;40.85;5.20;;;;;;;;;;5034928;28;20053;-67
2023/01/13 01:13:39;;;;;;;40.53;5.88;;;;;;;;;;5053723;28;20145;-67
2023/01/13 01:16:06;;;;;;;29.60;5.20;;;;;;;;;;5052464;28;20542;-67
2023/01/13 01:18:36;;;;;;;34.30;5.03;;;;;;;;;;5053341;28;20036;-67
2023/01/13 01:21:03;;;;;;;36.13;5.25;;;;;;;;;;5053392;28;20373;-68
2023/01/13 01:23:30;;;;;;;28.63;4.78;;;;;;;;;;5053008;28;20079;-68
2023/01/13 01:26:00;;;;;;;33.50;4.68;;;;;;;;;;5043655;28;20042;-68
2023/01/13 01:28:26;;;;;;;27.83;4.50;;;;;;;;;;5033516;28;20045;-68
2023/01/13 01:30:54;;;;;;;24.05;3.85;;;;;;;;;;5033621;28;20040;-67
2023/01/13 01:33:20;;;;;;;26.25;4.50;;;;;;;;;;5031304;28;20042;-67
2023/01/13 01:35:46;;;;;;;32.13;4.05;;;;;;;;;;5033414;28;20042;-67
2023/01/13 01:38:12;;;;;;;27.13;5.15;;;;;;;;;;5033240;28;20045;-67
2023/01/13 01:40:38;;;;;;;25.65;3.88;;;;;;;;;;5015495;28;20049;-67
2023/01/13 01:45:59;;;;;;;30.08;4.30;;;;;;;;;;5032993;28;20053;-67
2023/01/13 01:48:27;;;;;;;27.05;4.80;;;;;;;;;;5032670;28;20049;-67
2023/01/13 01:50:53;;;;;;;25.75;4.78;;;;;;;;;;5033336;28;20041;-67
2023/01/13 01:53:20;;;;;;;30.95;4.63;;;;;;;;;;5032742;28;20073;-67
2023/01/13 01:55:46;;;;;;;29.02;4.75;;;;;;;;;;5031107;28;20050;-67
2023/01/13 01:58:15;;;;;;;32.25;4.70;;;;;;;;;;5032968;28;20037;-67
2023/01/13 02:00:41;;;;;;;32.85;4.82;;;;;;;;;;5033111;28;20636;-67
2023/01/13 02:03:08;;;;;;;35.63;4.97;;;;;;;;;;5030906;28;20045;-68
2023/01/13 02:05:34;;;;;;;29.55;4.63;;;;;;;;;;5031408;28;20412;-68
2023/01/13 02:08:00;;;;;;;33.65;4.50;;;;;;;;;;5031215;28;20094;-68
2023/01/13 02:10:27;;;;;;;44.08;5.38;;;;;;;;;;5031180;28;20066;-68
2023/01/13 02:12:55;;;;;;;35.33;4.78;;;;;;;;;;5048426;28;20045;-68
2023/01/13 02:15:23;;;;;;;28.27;4.25;;;;;;;;;;5051094;28;20041;-67
2023/01/13 02:17:58;;;;;;;34.65;5.22;;;;;;;;;;5050505;28;20052;-67
2023/01/13 02:20:24;;;;;;;38.03;5.57;;;;;;;;;;5052428;28;20064;-67
2023/01/13 02:26:37;;;;;;;36.72;5.05;;;;;;;;;;5023237;28;20072;-67
2023/01/13 02:31:59;;;;;;;34.13;5.93;;;;;;;;;;5030661;28;20451;-67
2023/01/13 02:34:31;;;;;;;31.00;5.78;;;;;;;;;;5030686;28;20049;-67
2023/01/13 02:36:57;;;;;;;28.52;4.90;;;;;;;;;;5031095;28;20090;-67
2023/01/13 02:39:33;;;;;;;26.20;4.80;;;;;;;;;;5031788;28;20081;-67
2023/01/13 02:45:03;;;;;;;31.88;4.18;;;;;;;;;;5032188;28;20140;-67
2023/01/13 02:47:30;;;;;;;34.38;4.88;;;;;;;;;;5031826;28;20575;-67
2023/01/13 02:49:59;;;;;;;30.95;5.07;;;;;;;;;;5030796;28;20037;-67
2023/01/13 02:52:37;;;;;;;33.08;4.85;;;;;;;;;;5031796;28;20128;-67
2023/01/13 02:55:06;;;;;;;29.40;4.45;;;;;;;;;;5031530;28;20045;-67
2023/01/13 02:57:33;;;;;;;30.05;4.65;;;;;;;;;;5030418;28;20052;-67
2023/01/13 03:00:00;;;;;;;38.28;5.53;;;;;;;;;;5031425;28;20063;-67
2023/01/13 03:02:26;;;;;;;30.85;5.95;;;;;;;;;;5031399;28;20033;-67
2023/01/13 03:04:54;;;;;;;28.00;4.60;;;;;;;;;;5031611;28;20042;-67
2023/01/13 03:07:32;;;;;;;27.02;5.03;;;;;;;;;;5031398;28;20044;-67
2023/01/13 03:10:05;;;;;;;32.65;4.65;;;;;;;;;;5029891;28;20464;-67
2023/01/13 03:12:50;;;;;;;25.00;4.82;;;;;;;;;;5045551;28;20059;-67
2023/01/13 03:15:16;;;;;;;37.17;5.95;;;;;;;;;;5033831;28;20059;-67
2023/01/13 03:17:48;;;;;;;33.95;4.72;;;;;;;;;;5050757;28;20045;-67
2023/01/13 03:20:32;;;;;;;30.02;4.85;;;;;;;;;;5049731;28;20056;-67
2023/01/13 03:23:00;;;;;;;34.10;5.00;;;;;;;;;;5051307;28;20092;-67
2023/01/13 03:25:36;;;;;;;34.70;5.30;;;;;;;;;;5045425;28;20041;-67
2023/01/13 03:28:12;;;;;;;38.10;5.28;;;;;;;;;;5030107;28;20479;-67
2023/01/13 03:30:39;;;;;;;32.60;4.72;;;;;;;;;;5030869;28;20041;-67
2023/01/13 03:33:12;;;;;;;33.03;5.80;;;;;;;;;;5030883;28;20104;-67
2023/01/13 03:35:44;;;;;;;36.85;5.50;;;;;;;;;;5030065;28;20087;-67
2023/01/13 03:38:12;;;;;;;41.07;5.30;;;;;;;;;;5029467;28;20046;-67
2023/01/13 03:40:41;;;;;;;32.03;5.63;;;;;;;;;;5029902;28;20296;-67
2023/01/13 03:46:02;;;;;;;32.28;5.18;;;;;;;;;;5030533;28;20057;-67
2023/01/13 03:48:30;;;;;;;33.33;5.20;;;;;;;;;;5029788;28;20057;-67
2023/01/13 03:51:02;;;;;;;30.67;4.32;;;;;;;;;;5029841;28;20050;-67
2023/01/13 03:53:30;;;;;;;34.47;4.85;;;;;;;;;;5028828;28;20107;-67
2023/01/13 03:56:01;;;;;;;37.28;5.57;;;;;;;;;;5030716;28;20037;-67
2023/01/13 03:58:37;;;;;;;37.05;5.18;;;;;;;;;;5029549;28;20099;-67
2023/01/13 04:01:09;;;;;;;39.08;5.53;;;;;;;;;;5030452;28;20488;-67
2023/01/13 04:03:41;;;;;;;40.10;5.22;;;;;;;;;;5029406;28;20119;-67
2023/01/13 04:06:07;;;;;;;;;;;;;;;;;;5031303;28;20076;-67
2023/01/13 04:08:34;;;;;;;35.03;5.40;;;;;;;;;;5030054;28;20013;-67
2023/01/13 04:11:06;;;;;;;42.90;6.13;;;;;;;;;;5032484;28;20037;-67
2023/01/13 04:13:35;;;;;;;44.60;5.32;;;;;;;;;;5048784;28;20045;-67
2023/01/13 04:16:01;;;;;;;32.97;6.10;;;;;;;;;;5050152;28;20037;-67
2023/01/13 04:18:32;;;;;;;34.22;5.15;;;;;;;;;;5049191;28;20605;-67
2023/01/13 04:20:59;;;;;;;33.65;4.70;;;;;;;;;;5051826;28;20064;-67
2023/01/13 04:23:26;;;;;;;44.83;6.45;;;;;;;;;;5052729;28;20057;-67
2023/01/13 04:25:53;;;;;;;29.95;5.75;;;;;;;;;;5045801;28;20397;-67
2023/01/13 04:28:19;;;;;;;37.38;5.75;;;;;;;;;;5033186;28;20423;-67
2023/01/13 04:30:45;;;;;;;36.92;5.18;;;;;;;;;;5034372;28;20458;-67
2023/01/13 04:33:12;;;;;;;37.05;5.57;;;;;;;;;;5034451;28;20034;-67
2023/01/13 04:35:39;;;;;;;39.88;5.82;;;;;;;;;;5034682;28;20071;-67
2023/01/13 04:38:06;;;;;;;33.30;4.65;;;;;;;;;;5033902;28;20054;-68
2023/01/13 04:40:33;;;;;;;40.92;5.57;;;;;;;;;;5034655;28;20040;-67
2023/01/13 04:42:59;;;;;;;37.53;5.85;;;;;;;;;;5032830;28;20663;-67
2023/01/13 04:45:25;;;;;;;34.75;5.25;;;;;;;;;;5033910;28;20088;-67
2023/01/13 04:47:51;;;;;;;40.83;6.43;;;;;;;;;;5034415;28;20073;-67
2023/01/13 04:50:18;;;;;;;38.97;6.07;;;;;;;;;;5032550;28;20395;-67
2023/01/13 04:52:45;;;;;;;35.30;5.88;;;;;;;;;;5033754;28;20582;-67
2023/01/13 04:55:11;;;;;;;36.83;5.65;;;;;;;;;;5032855;28;20078;-67
2023/01/13 04:57:37;;;;;;;27.73;5.10;;;;;;;;;;5034148;28;20073;-67
2023/01/13 05:00:23;;;;;;;49.40;6.45;;;;;;;;;;5033798;28;20041;-67
2023/01/13 05:02:50;;;;;;;39.17;6.53;;;;;;;;;;5031145;28;20053;-67
2023/01/13 05:05:16;;;;;;;31.27;5.32;;;;;;;;;;5033778;28;20049;-67
2023/01/13 05:07:42;;;;;;;34.63;5.43;;;;;;;;;;5033693;28;20100;-67
2023/01/13 05:10:09;;;;;;;40.60;5.35;;;;;;;;;;5033696;28;20079;-67
2023/01/13 05:18:04;;;;;;;39.00;5.80;;;;;;;;;;5052506;28;20380;-67
2023/01/13 05:20:30;;;;;;;38.55;4.70;;;;;;;;;;5053097;28;20060;-67
2023/01/13 05:25:42;;;;;;;26.25;4.45;;;;;;;;;;5047844;28;20076;-67
2023/01/13 05:28:09;;;;;;;37.03;4.68;;;;;;;;;;5034048;28;20597;-67
2023/01/13 05:30:42;;;;;;;28.08;5.72;;;;;;;;;;5032916;28;20046;-67
2023/01/13 05:33:12;;;;;;;34.60;4.65;;;;;;;;;;5032629;28;20049;-67
2023/01/13 05:35:39;;;;;;;30.02;4.50;;;;;;;;;;5033804;28;20416;-67
2023/01/13 05:38:05;;;;;;;32.55;4.47;;;;;;;;;;5032314;28;20084;-67
2023/01/13 05:43:19;;;;;;;26.88;4.25;;;;;;;;;;5032399;28;20171;-67
2023/01/13 05:45:47;;;;;;;27.02;4.95;;;;;;;;;;5031579;28;20104;-67
2023/01/13 05:48:13;;;;;;;32.20;3.95;;;;;;;;;;5033415;28;20480;-67
2023/01/13 05:50:39;;;;;;;22.65;3.83;;;;;;;;;;5032571;28;20112;-67
2023/01/13 05:53:05;;;;;;;29.95;4.72;;;;;;;;;;5032575;28;20124;-67
2023/01/13 05:55:32;;;;;;;27.90;4.53;;;;;;;;;;5032976;28;20033;-67
2023/01/13 05:57:58;;;;;;;22.48;3.67;;;;;;;;;;5032715;28;20096;-67
2023/01/13 06:00:24;;;;;;;27.60;4.40;;;;;;;;;;5032792;28;20631;-67
2023/01/13 06:02:50;;;;;;;27.50;3.17;;;;;;;;;;5032908;28;20047;-67
2023/01/13 06:05:16;;;;;;;24.42;3.20;;;;;;;;;;5032960;28;20091;-67
2023/01/13 06:07:42;;;;;;;23.80;3.58;;;;;;;;;;5032752;28;20699;-67
2023/01/13 06:10:08;;;;;;;23.02;3.42;;;;;;;;;;5031763;28;20051;-67
2023/01/13 06:12:35;;;;;;;25.23;4.60;;;;;;;;;;5046554;28;20697;-67
2023/01/13 06:15:01;;;;;;;26.20;3.38;;;;;;;;;;5052525;28;20044;-67
2023/01/13 06:17:28;;;;;;;25.23;3.10;;;;;;;;;;5053056;28;20041;-67
2023/01/13 06:19:54;;;;;;;20.40;4.05;;;;;;;;;;5043498;28;20415;-67
2023/01/13 06:22:20;;;;;;;19.38;3.65;;;;;;;;;;5032065;28;20100;-67
2023/01/13 06:24:46;;;;;;;23.63;3.25;;;;;;;;;;5032424;28;20052;-67
2023/01/13 06:27:12;;;;;;;30.38;4.78;;;;;;;;;;5032764;28;20439;-67
2023/01/13 06:29:38;;;;;;;18.08;3.35;;;;;;;;;;5032234;28;20129;-67
2023/01/13 06:32:06;;;;;;;20.35;3.50;;;;;;;;;;5032605;28;20116;-67
2023/01/13 06:34:33;;;;;;;23.70;4.10;;;;;;;;;;5031146;28;20041;-67
2023/01/13 06:37:00;;;;;;;23.20;3.90;;;;;;;;;;5029368;28;20053;-68
2023/01/13 06:39:29;;;;;;;22.20;3.53;;;;;;;;;;5030787;28;20154;-70
2023/01/13 06:44:40;;;;;;;15.10;2.72;;;;;;;;;;5018372;28;20503;-71
2023/01/13 06:47:06;;;;;;;23.23;3.25;;;;;;;;;;5031000;28;20029;-69
2023/01/13 06:49:32;;;;;;;12.23;2.90;;;;;;;;;;5030817;28;20037;-70
2023/01/13 06:51:58;;;;;;;28.73;3.78;;;;;;;;;;5029965;28;20084;-70
2023/01/13 06:54:24;;;;;;;20.20;2.97;;;;;;;;;;5014764;28;20049;-69
2023/01/13 06:56:50;;;;;;;19.02;2.88;;;;;;;;;;5030782;28;20041;-68
2023/01/13 06:59:17;;;;;;;23.52;3.08;;;;;;;;;;5030646;28;20048;-68
2023/01/13 07:01:43;;;;;;;16.10;3.20;;;;;;;;;;5030342;28;20446;-68
2023/01/13 07:04:09;;;;;;;23.77;3.90;;;;;;;;;;5030387;28;20077;-67
2023/01/13 07:06:35;;;;;;;16.50;3.70;;;;;;;;;;5030070;28;20460;-67
2023/01/13 07:09:01;;;;;;;19.48;3.67;;;;;;;;;;5026124;28;20050;-67
2023/01/13 07:11:27;;;;;;;19.25;2.80;;;;;;;;;;5021778;28;20060;-67
2023/01/13 07:16:38;;;;;;;13.65;2.35;;;;;;;;;;5031032;28;20072;-69
2023/01/13 07:19:04;;;;;;;23.13;2.78;;;;;;;;;;5030573;28;20408;-69
2023/01/13 07:21:30;;;;;;;18.77;3.33;;;;;;;;;;5028513;28;20057;-69
2023/01/13 07:23:57;;;;;;;19.17;2.72;;;;;;;;;;5030828;28;20073;-68
2023/01/13 07:26:23;;;;;;;17.05;3.22;;;;;;;;;;5018499;28;20037;-69
2023/01/13 07:28:49;;;;;;;28.90;4.15;;;;;;;;;;5019129;28;20453;-68
2023/01/13 07:31:16;;;;;;;20.98;2.70;;;;;;;;;;5022468;28;20072;-69
2023/01/13 07:33:42;;;;;;;25.55;4.30;;;;;;;;;;4998552;28;20042;-66
2023/01/13 07:36:08;;;;;;;20.20;3.47;;;;;;;;;;5016484;28;20045;-65
2023/01/13 07:38:35;;;;;;;25.27;2.95;;;;;;;;;;5030281;28;20439;-67
2023/01/13 07:43:46;;;;;;;20.77;2.70;;;;;;;;;;5029378;28;20443;-65
2023/01/13 07:46:12;;;;;;;25.10;3.78;;;;;;;;;;5030025;28;20186;-67
2023/01/13 07:48:38;;;;;;;21.88;3.58;;;;;;;;;;5030191;28;20037;-67
2023/01/13 07:51:05;;;;;;;28.10;2.95;;;;;;;;;;5029071;28;20049;-66
2023/01/13 07:53:31;;;;;;;19.60;3.30;;;;;;;;;;5028016;28;20045;-66
2023/01/13 07:55:57;;;;;;;22.90;3.90;;;;;;;;;;5030049;28;20429;-66
2023/01/13 07:58:24;;;;;;;26.63;3.20;;;;;;;;;;5028159;28;20041;-67
2023/01/13 08:00:50;;;;;;;25.92;4.13;;;;;;;;;;5030140;28;20045;-68
2023/01/13 08:03:16;;;;;;;31.23;4.22;;;;;;;;;;5029638;28;20387;-67
2023/01/13 08:05:42;;;;;;;25.83;3.00;;;;;;;;;;5028589;28;20053;-65
2023/01/13 08:08:08;;;;;;;19.48;3.05;;;;;;;;;;5014024;28;20046;-66
2023/01/13 08:10:36;;;;;;;32.25;4.20;;;;;;;;;;5030074;28;20037;-66
2023/01/13 08:13:17;;;;;;;31.00;3.35;;;;;;;;;;5030750;28;20046;-65
2023/01/13 08:15:46;;;;;;;25.67;3.78;;;;;;;;;;5010315;28;20046;-66
2023/01/13 08:18:13;;;;;;;22.80;3.95;;;;;;;;;;5027765;28;20455;-65
2023/01/13 08:20:39;;;;;;;32.20;4.43;;;;;;;;;;5029401;28;20073;-67
2023/01/13 08:23:05;;;;;;;27.63;3.92;;;;;;;;;;5029483;28;20152;-66
2023/01/13 08:25:31;;;;;;;25.02;3.28;;;;;;;;;;5028508;28;20373;-64
2023/01/13 08:28:00;;;;;;;28.60;3.65;;;;;;;;;;5029698;28;20472;-65
2023/01/13 08:30:26;;;;;;;29.10;4.00;;;;;;;;;;5013037;28;20092;-65
2023/01/13 08:32:52;;;;;;;29.38;3.42;;;;;;;;;;5029264;28;20391;-65
2023/01/13 08:35:19;;;;;;;25.42;3.45;;;;;;;;;;5029713;28;20111;-65
2023/01/13 08:37:45;;;;;;;31.83;3.95;;;;;;;;;;5022696;28;20637;-65
2023/01/13 08:40:12;;;;;;;24.73;3.95;;;;;;;;;;5010111;28;20038;-65
2023/01/13 08:42:38;;;;;;;27.25;4.57;;;;;;;;;;5028139;28;20037;-65
2023/01/13 08:45:04;;;;;;;24.77;4.68;;;;;;;;;;5029497;28;20120;-63
2023/01/13 08:47:30;;;;;;;31.67;4.72;;;;;;;;;;5029903;28;20037;-65
2023/01/13 08:49:56;;;;;;;26.20;3.60;;;;;;;;;;5027374;28;20515;-66
2023/01/13 08:52:23;;;;;;;21.02;3.70;;;;;;;;;;5025087;28;20121;-67
2023/01/13 08:54:49;;;;;;;28.42;3.90;;;;;;;;;;5024776;28;20047;-65
2023/01/13 08:57:15;;;;;;;20.65;3.72;;;;;;;;;;5007875;28;20160;-64
2023/01/13 08:59:44;;;;;;;25.10;3.53;;;;;;;;;;5024790;28;20041;-65
2023/01/13 09:02:18;;;;;;;25.75;3.58;;;;;;;;;;5029432;28;20117;-65
2023/01/13 09:04:44;;;;;;;26.80;3.55;;;;;;;;;;5027268;28;20068;-66
2023/01/13 09:07:10;;;;;;;24.88;3.28;;;;;;;;;;5030543;28;20395;-65
2023/01/13 09:09:37;;;;;;;19.40;3.85;;;;;;;;;;5028815;28;20037;-66
2023/01/13 09:14:48;;;;;;;25.38;3.97;;;;;;;;;;5032213;28;20049;-67
2023/01/13 09:17:14;;;;;;;24.95;3.95;;;;;;;;;;5020961;28;20053;-64
2023/01/13 09:19:40;;;;;;;24.55;4.70;;;;;;;;;;5030174;28;20076;-64
2023/01/13 09:22:07;;;;;;;30.83;5.15;;;;;;;;;;5031090;28;20093;-64
2023/01/13 09:24:33;;;;;;;23.65;4.03;;;;;;;;;;5032007;28;20045;-62
2023/01/13 09:26:59;;;;;;;29.83;4.75;;;;;;;;;;5019652;28;20041;-66
2023/01/13 09:29:25;;;;;;;31.30;4.97;;;;;;;;;;5030231;28;20057;-66
2023/01/13 09:31:51;;;;;;;30.95;4.25;;;;;;;;;;5027995;28;20041;-65
2023/01/13 09:37:04;;;;;;;24.17;4.10;;;;;;;;;;5030555;28;20053;-65
2023/01/13 09:39:31;;;;;;;29.77;4.53;;;;;;;;;;5025791;28;20049;-66
2023/01/13 09:45:13;;;;;;;30.25;4.57;;;;;;;;;;5023893;28;20052;-65
2023/01/13 09:47:50;;;;;;;24.80;3.85;;;;;;;;;;5015699;28;20056;-66
2023/01/13 09:50:15;;;;;;;30.98;4.60;;;;;;;;;;5026074;28;20128;-65
2023/01/13 09:52:42;;;;;;;33.33;5.15;;;;;;;;;;5030353;28;20041;-65
2023/01/13 09:55:14;;;;;;;23.65;4.05;;;;;;;;;;5032190;28;20049;-66
2023/01/13 09:57:40;;;;;;;;;;;;;;;;;;5028207;28;20049;-66
2023/01/13 10:00:21;;;;;;;30.75;4.53;;;;;;;;;;5023084;28;19928;-69
2023/01/13 10:02:50;;;;;;;27.77;3.53;;;;;;;;;;5022153;28;20037;-69
2023/01/13 10:05:22;;;;;;;26.30;4.32;;;;;;;;;;5028676;28;20043;-69
2023/01/13 10:07:57;;;;;;;26.30;4.03;;;;;;;;;;5026839;28;20042;-68
2023/01/13 10:10:32;;;;;;;28.92;4.53;;;;;;;;;;4994333;28;20034;-67
2023/01/13 10:13:13;;;;;;;31.30;4.00;;;;;;;;;;5030643;28;20684;-68
2023/01/13 10:15:42;;;;;;;37.20;5.38;;;;;;;;;;5030712;28;20057;-69
2023/01/13 10:18:14;;;;;;;27.92;4.00;;;;;;;;;;5025872;28;20041;-68
2023/01/13 10:20:48;;;;;;;30.33;3.85;;;;;;;;;;5030820;28;20080;-69
2023/01/13 10:23:18;;;;;;;33.13;4.10;;;;;;;;;;5027042;28;20716;-68
2023/01/13 10:25:44;;;;;;;29.38;4.53;;;;;;;;;;5022839;28;20053;-68
2023/01/13 10:28:12;;;;;;;28.70;3.85;;;;;;;;;;5020682;28;20042;-67
2023/01/13 10:30:39;;;;;;;22.52;3.80;;;;;;;;;;5021365;28;20059;-68
2023/01/13 10:33:08;;;;;;;32.50;4.82;;;;;;;;;;5029524;28;20128;-68
2023/01/13 10:35:53;;;;;;;36.15;4.80;;;;;;;;;;5027907;28;20041;-68
2023/01/13 10:38:39;;;;;;;23.30;3.63;;;;;;;;;;5029356;28;20075;-68
2023/01/13 10:41:18;;;;;;;27.60;4.25;;;;;;;;;;5028015;28;20069;-69
2023/01/13 10:43:51;;;;;;;25.67;3.63;;;;;;;;;;5027524;28;20510;-69
2023/01/13 10:46:17;;;;;;;31.90;5.25;;;;;;;;;;5027738;28;20052;-68
2023/01/13 10:48:57;;;;;;;31.48;5.18;;;;;;;;;;5028619;28;20091;-67
2023/01/13 10:51:23;;;;;;;34.17;4.47;;;;;;;;;;5027521;28;20530;-67
2023/01/13 10:53:54;;;;;;;27.70;4.70;;;;;;;;;;5019940;28;20086;-68
2023/01/13 10:56:21;;;;;;;37.05;4.90;;;;;;;;;;5014902;28;20107;-68
2023/01/13 10:58:47;;;;;;;32.90;4.32;;;;;;;;;;5025206;28;20041;-67
2023/01/13 11:01:19;;;;;;;25.20;4.18;;;;;;;;;;5028183;28;20527;-67
2023/01/13 11:03:46;;;;;;;40.10;5.60;;;;;;;;;;5027447;28;20049;-69
2023/01/13 11:06:22;;;;;;;24.83;3.83;;;;;;;;;;5018646;28;20072;-70
2023/01/13 11:08:49;;;;;;;28.27;4.50;;;;;;;;;;5025559;28;20483;-68
2023/01/13 11:11:33;;;;;;;28.10;3.65;;;;;;;;;;5023700;28;20423;-69
2023/01/13 11:16:50;;;;;;;26.33;4.05;;;;;;;;;;5024418;28;20115;-69
2023/01/13 11:19:18;;;;;;;27.20;4.55;;;;;;;;;;5014956;28;20460;-70
2023/01/13 11:22:03;;;;;;;27.80;3.65;;;;;;;;;;5027030;28;20150;-70
2023/01/13 11:24:49;;;;;;;30.23;4.43;;;;;;;;;;5031184;28;20053;-68
2023/01/13 11:27:22;;;;;;;26.58;5.18;;;;;;;;;;5014211;28;20045;-68
2023/01/13 11:29:49;;;;;;;32.85;4.60;;;;;;;;;;5025429;28;20057;-69
2023/01/13 11:32:19;;;;;;;26.33;3.60;;;;;;;;;;5023994;28;20045;-69
2023/01/13 11:34:47;;;;;;;20.00;3.25;;;;;;;;;;5026760;28;20091;-69
2023/01/13 11:37:25;;;;;;;26.10;4.15;;;;;;;;;;5035031;28;20037;-70
2023/01/13 11:39:58;;;;;;;26.77;3.88;;;;;;;;;;5027911;28;20144;-71
2023/01/13 11:42:46;;;;;;;26.80;4.10;;;;;;;;;;5024530;28;20042;-70
2023/01/13 11:45:19;;;;;;;21.33;3.38;;;;;;;;;;5022262;28;20063;-68
2023/01/13 11:47:46;;;;;;;23.63;3.13;;;;;;;;;;5023064;28;20770;-69
2023/01/13 11:50:15;;;;;;;28.25;3.80;;;;;;;;;;5029732;28;20038;-69
2023/01/13 11:53:07;;;;;;;26.92;4.15;;;;;;;;;;5030308;28;20041;-68
2023/01/13 11:55:33;;;;;;;18.03;3.17;;;;;;;;;;5020955;28;20053;-70
2023/01/13 11:58:18;;;;;;;30.95;4.03;;;;;;;;;;5013553;28;20661;-67
2023/01/13 12:00:58;;;;;;;18.65;3.58;;;;;;;;;;5010313;28;20080;-67
2023/01/13 12:03:24;;;;;;;20.52;3.17;;;;;;;;;;5027413;28;20140;-68
2023/01/13 12:05:58;;;;;;;19.13;3.92;;;;;;;;;;5029751;28;20372;-67
2023/01/13 12:08:37;;;;;;;25.20;3.70;;;;;;;;;;5028857;28;20408;-67
2023/01/13 12:11:06;;;;;;;23.83;3.10;;;;;;;;;;5030446;28;20686;-69
2023/01/13 12:13:35;;;;;;;24.25;3.85;;;;;;;;;;5036743;28;20073;-70
2023/01/13 12:16:22;;;;;;;22.13;3.70;;;;;;;;;;5028916;28;20136;-70
2023/01/13 12:19:23;;;;;;;21.17;2.78;;;;;;;;;;5028786;28;20085;-70
2023/01/13 12:22:02;;;;;;;19.60;3.20;;;;;;;;;;4967914;28;20190;-69
2023/01/13 12:24:31;;;;;;;27.00;3.28;;;;;;;;;;5019238;28;20045;-69
2023/01/13 12:26:59;;;;;;;21.15;3.13;;;;;;;;;;5028749;28;20044;-68
2023/01/13 12:29:35;;;;;;;19.67;3.50;;;;;;;;;;5027291;28;20034;-68
2023/01/13 12:32:04;;;;;;;21.50;3.15;;;;;;;;;;5029244;28;20046;-68
2023/01/13 12:34:30;;;;;;;15.20;2.53;;;;;;;;;;5028904;28;20115;-68
2023/01/13 12:37:05;;;;;;;23.77;3.55;;;;;;;;;;5028633;28;20053;-68
2023/01/13 12:39:57;;;;;;;18.33;2.92;;;;;;;;;;5028114;28;20048;-69
2023/01/13 12:45:31;;;;;;;19.20;3.20;;;;;;;;;;5032304;28;20379;-70
2023/01/13 12:47:58;;;;;;;21.75;3.53;;;;;;;;;;5032131;28;20468;-70
2023/01/13 12:50:24;;;;;;;21.60;3.25;;;;;;;;;;5032529;28;20053;-68
2023/01/13 12:52:50;;;;;;;14.63;2.80;;;;;;;;;;5033943;28;20096;-68
2023/01/13 12:55:18;;;;;;;18.83;2.72;;;;;;;;;;5033594;28;20450;-69
2023/01/13 12:57:58;;;;;;;15.38;2.60;;;;;;;;;;5033214;28;20425;-67
2023/01/13 13:00:30;;;;;;;19.45;2.90;;;;;;;;;;5033691;28;20095;-67
2023/01/13 13:03:14;;;;;;;16.83;2.40;;;;;;;;;;5032027;28;20042;-67
2023/01/13 13:05:41;;;;;;;16.98;2.33;;;;;;;;;;5033301;28;20051;-67
2023/01/13 13:08:31;;;;;;;18.95;2.63;;;;;;;;;;5031745;28;20120;-68
2023/01/13 13:11:00;;;;;;;16.90;2.97;;;;;;;;;;5006379;28;20397;-67
2023/01/13 13:13:45;;;;;;;15.18;2.60;;;;;;;;;;5036803;28;20042;-67
2023/01/13 13:16:26;;;;;;;15.57;2.70;;;;;;;;;;5013658;28;20046;-66
2023/01/13 13:18:52;;;;;;;14.50;2.47;;;;;;;;;;5004902;28;20420;-67
2023/01/13 13:21:18;;;;;;;16.17;2.42;;;;;;;;;;5019030;28;20061;-68
2023/01/13 13:24:11;;;;;;;8.77;2.10;;;;;;;;;;5031383;28;20484;-68
2023/01/13 13:26:38;;;;;;;17.60;2.78;;;;;;;;;;5021684;28;20137;-67
2023/01/13 13:29:22;;;;;;;14.63;2.40;;;;;;;;;;5016755;28;20041;-68
2023/01/13 13:32:07;;;;;;;20.77;3.75;;;;;;;;;;5031309;28;20037;-67
2023/01/13 13:34:45;;;;;;;16.13;2.85;;;;;;;;;;5032808;28;20133;-67
2023/01/13 13:37:28;;;;;;;16.48;2.55;;;;;;;;;;5031644;28;20037;-67
2023/01/13 13:48:29;;;;;;;21.88;3.78;;;;;;;;;;5031754;28;20507;-68
2023/01/13 13:51:01;;;;;;;15.25;2.40;;;;;;;;;;5031211;28;20049;-68
2023/01/13 13:53:27;;;;;;;;;;;;;;;;;;5024383;28;20052;-67
2023/01/13 13:55:59;;;;;;;11.40;2.58;;;;;;;;;;5013080;28;19941;-67
2023/01/13 13:58:26;;;;;;;14.02;2.65;;;;;;;;;;5025484;28;20068;-67
2023/01/13 14:00:53;;;;;;;10.25;2.50;;;;;;;;;;5032421;28;20045;-67
2023/01/13 14:03:23;;;;;;;14.88;2.50;;;;;;;;;;5032454;28;20076;-67
2023/01/13 14:05:58;;;;;;;15.38;2.08;;;;;;;;;;5030749;28;20049;-66
2023/01/13 14:08:24;;;;;;;16.27;2.38;;;;;;;;;;5032212;28;20045;-69
2023/01/13 14:10:51;;;;;;;24.73;3.50;;;;;;;;;;5030879;28;20044;-68
2023/01/13 14:13:17;;;;;;;17.05;2.33;;;;;;;;;;5046409;28;20045;-67
2023/01/13 14:15:43;;;;;;;11.65;2.50;;;;;;;;;;5030345;28;20049;-67
2023/01/13 14:18:20;;;;;;;17.17;3.10;;;;;;;;;;5031977;28;20043;-68
2023/01/13 14:21:15;;;;;;;12.02;2.75;;;;;;;;;;5030694;28;20069;-68
2023/01/13 14:23:49;;;;;;;13.15;2.50;;;;;;;;;;5005836;28;20522;-66
2023/01/13 14:26:15;;;;;;;24.10;3.78;;;;;;;;;;5023939;28;20049;-67
2023/01/13 14:28:42;;;;;;;17.50;2.25;;;;;;;;;;5032058;28;20073;-67
2023/01/13 14:31:09;;;;;;;7.88;2.72;;;;;;;;;;5029845;28;20034;-67
2023/01/13 14:33:39;;;;;;;19.83;2.70;;;;;;;;;;5031626;28;20021;-66
2023/01/13 14:36:06;;;;;;;12.55;2.50;;;;;;;;;;5031410;28;20049;-67
2023/01/13 14:38:32;;;;;;;16.50;2.63;;;;;;;;;;5030096;28;20042;-68
2023/01/13 14:41:09;;;;;;;15.57;2.25;;;;;;;;;;5029963;28;20377;-67
2023/01/13 14:43:35;;;;;;;15.43;2.40;;;;;;;;;;5010480;28;20041;-69
2023/01/13 14:46:02;;;;;;;16.85;2.58;;;;;;;;;;5013062;28;20450;-69
2023/01/13 14:48:34;;;;;;;14.48;2.40;;;;;;;;;;5030588;28;20095;-66
2023/01/13 14:51:01;;;;;;;16.20;2.53;;;;;;;;;;5031534;28;20034;-66
2023/01/13 14:53:36;;;;;;;9.82;2.35;;;;;;;;;;5031708;28;20049;-67
2023/01/13 14:56:22;;;;;;;19.38;2.20;;;;;;;;;;5031813;28;20041;-67
2023/01/13 14:58:48;;;;;;;8.60;2.13;;;;;;;;;;5020513;28;20049;-67
2023/01/13 15:01:35;;;;;;;15.90;2.63;;;;;;;;;;5031547;28;20046;-67
2023/01/13 15:04:17;;;;;;;13.30;2.08;;;;;;;;;;5030865;28;20659;-67
2023/01/13 15:06:46;;;;;;;13.98;2.67;;;;;;;;;;5029821;28;20125;-67
2023/01/13 15:09:12;;;;;;;13.13;2.72;;;;;;;;;;5031687;28;20029;-67
2023/01/13 15:11:39;;;;;;;12.00;2.10;;;;;;;;;;5037809;28;20486;-67
2023/01/13 15:14:10;;;;;;;12.52;2.88;;;;;;;;;;5051179;28;20040;-67
2023/01/13 15:16:36;;;;;;;9.15;2.50;;;;;;;;;;5049889;28;20048;-67
2023/01/13 15:19:03;;;;;;;13.88;2.42;;;;;;;;;;5050061;28;20128;-68
2023/01/13 15:21:29;;;;;;;14.73;2.42;;;;;;;;;;5049381;28;20451;-68
2023/01/13 15:23:55;;;;;;;11.52;2.38;;;;;;;;;;5051326;28;20045;-68
2023/01/13 15:26:25;;;;;;;13.95;2.38;;;;;;;;;;5038511;28;20506;-67
2023/01/13 15:28:52;;;;;;;17.17;2.35;;;;;;;;;;5031108;28;20428;-67
2023/01/13 15:31:19;;;;;;;16.92;3.22;;;;;;;;;;5030098;28;20071;-67
2023/01/13 15:33:45;;;;;;;10.73;1.80;;;;;;;;;;5031202;28;20045;-67
2023/01/13 15:36:18;;;;;;;14.02;2.40;;;;;;;;;;5030516;28;20107;-67
2023/01/13 15:38:44;;;;;;;12.77;2.03;;;;;;;;;;5031220;28;20491;-67
2023/01/13 15:41:10;;;;;;;16.73;2.47;;;;;;;;;;5031207;28;20103;-67
2023/01/13 15:46:36;;;;;;;12.18;1.75;;;;;;;;;;5031095;28;20072;-67